WXM80 ListenWXM80 Stop

You find our weather info also at:

UK Metoffice

WeatherCloud

Weather Underground

Northeastern Weather Network

AWEKAS

Citizen Weather Observer Program (CWOP)

HAMweather, WeatherForYou, PWS Weather


Weather Underground History page Text

Daily Summary for Nil La, TWC- Units:  English    Metric   Both
« Previous Day
Next Day »
Daily Weekly Monthly Yearly Custom
  High: Low: Average:
Temperature: 63.5 °F 60.7 °F 62.5 °F
Dew Point: 62.0 °F 54.7 °F 59.2 °F
Humidity: 95 % 75 % 89 %
Wind Speed: 5.7 mph 0.0 mph 1 mph
Wind Gust: 12.7 mph - -
Wind:- - ENE
Pressure: 29.98 in 29.80 in -
Precipitation: 0.00 in    
Historical Graphs
 
 
Tabular Data for Nil La, TWC-
Time Temperature Dew Point Pressure Wind Wind Speed Wind Gust Humidity Rainfall Rate (Hourly)
00:04 62.5 °F 58.9 °F 29.98 in Calm     88 % 0.00 in
00:09 62.5 °F 59.2 °F 29.98 in Calm     89 % 0.00 in
00:14 62.5 °F 59.2 °F 29.98 in Calm     89 % 0.00 in
00:19 62.5 °F 59.5 °F 29.98 in Calm     90 % 0.00 in
00:24 62.8 °F 60.4 °F 29.98 in Calm     92 % 0.00 in
00:29 63.0 °F 60.9 °F 29.98 in Calm     93 % 0.00 in
00:34 63.1 °F 61.0 °F 29.98 in Calm     93 % 0.00 in
00:39 63.1 °F 61.0 °F 29.98 in Calm     93 % 0.00 in
00:44 63.2 °F 61.1 °F 29.97 in Calm     93 % 0.00 in
00:49 63.2 °F 61.1 °F 29.97 in Calm     93 % 0.00 in
00:54 63.1 °F 61.0 °F 29.97 in Calm     93 % 0.00 in
00:59 63.1 °F 61.0 °F 29.97 in Calm     93 % 0.00 in
01:04 63.0 °F 60.9 °F 29.96 in Calm     93 % 0.00 in
01:09 62.9 °F 60.8 °F 29.96 in ENE 0.8 mph 2.3 mph 93 % 0.00 in
01:14 62.6 °F 60.2 °F 29.95 in Calm   2.3 mph 92 % 0.00 in
01:19 62.5 °F 60.1 °F 29.95 in Calm   2.3 mph 92 % 0.00 in
01:24 62.4 °F 60.0 °F 29.95 in ENE 0.6 mph 6.9 mph 92 % 0.00 in
01:29 62.4 °F 60.0 °F 29.95 in ENE 0.5 mph 4.0 mph 92 % 0.00 in
01:34 62.4 °F 59.7 °F 29.95 in ENE 0.4 mph 2.3 mph 91 % 0.00 in
01:39 62.4 °F 59.7 °F 29.95 in Calm     91 % 0.00 in
01:44 62.5 °F 59.8 °F 29.95 in ENE 0.9 mph 3.5 mph 91 % 0.00 in
01:49 62.5 °F 59.5 °F 29.95 in Calm   3.5 mph 90 % 0.00 in
01:54 62.5 °F 59.5 °F 29.95 in ENE 0.3 mph 3.5 mph 90 % 0.00 in
01:59 62.6 °F 59.6 °F 29.95 in Calm   1.2 mph 90 % 0.00 in
02:04 62.6 °F 59.6 °F 29.95 in Calm     90 % 0.00 in
02:09 62.7 °F 59.4 °F 29.95 in Calm     89 % 0.00 in
02:14 62.7 °F 59.4 °F 29.95 in Calm     89 % 0.00 in
02:19 62.7 °F 59.4 °F 29.94 in ENE 0.1 mph   89 % 0.00 in
02:24 62.7 °F 59.4 °F 29.94 in Calm   2.3 mph 89 % 0.00 in
02:29 62.7 °F 59.4 °F 29.94 in Calm     89 % 0.00 in
02:34 62.7 °F 59.1 °F 29.94 in Calm     88 % 0.00 in
02:39 62.7 °F 59.1 °F 29.94 in Calm     88 % 0.00 in
02:44 62.7 °F 58.8 °F 29.93 in Calm   1.2 mph 87 % 0.00 in
02:49 62.7 °F 58.8 °F 29.93 in Calm   1.2 mph 87 % 0.00 in
02:54 62.8 °F 58.9 °F 29.93 in Calm     87 % 0.00 in
02:59 62.8 °F 58.5 °F 29.93 in Calm     86 % 0.00 in
03:04 62.7 °F 58.5 °F 29.93 in Calm     86 % 0.00 in
03:09 62.8 °F 58.5 °F 29.92 in Calm     86 % 0.00 in
03:14 62.8 °F 58.2 °F 29.92 in Calm     85 % 0.00 in
03:19 62.8 °F 58.2 °F 29.92 in Calm     85 % 0.00 in
03:24 62.9 °F 58.3 °F 29.92 in Calm     85 % 0.00 in
03:29 62.9 °F 58.0 °F 29.91 in Calm     84 % 0.00 in
03:34 62.9 °F 58.0 °F 29.90 in NE 0.5 mph 3.5 mph 84 % 0.00 in
03:39 63.0 °F 58.1 °F 29.91 in Calm     84 % 0.00 in
03:44 63.0 °F 58.1 °F 29.91 in Calm   1.2 mph 84 % 0.00 in
03:49 63.0 °F 57.8 °F 29.91 in NE 0.4 mph   83 % 0.00 in
03:54 63.0 °F 57.8 °F 29.91 in East 0.1 mph 1.2 mph 83 % 0.00 in
03:59 63.1 °F 57.9 °F 29.91 in East 0.2 mph   83 % 0.00 in
04:04 63.1 °F 57.9 °F 29.91 in Calm     83 % 0.00 in
04:09 63.1 °F 58.2 °F 29.90 in Calm     84 % 0.00 in
04:14 63.2 °F 58.6 °F 29.90 in Calm   1.2 mph 85 % 0.00 in
04:19 63.3 °F 59.0 °F 29.90 in ENE 0.5 mph 1.0 mph 86 % 0.00 in
04:24 63.3 °F 59.0 °F 29.90 in Calm     86 % 0.00 in
04:29 63.3 °F 59.0 °F 29.90 in Calm     86 % 0.00 in
04:34 63.2 °F 58.9 °F 29.90 in Calm     86 % 0.00 in
04:39 63.2 °F 58.9 °F 29.89 in ENE 1.0 mph 3.5 mph 86 % 0.00 in
04:44 63.2 °F 58.9 °F 29.89 in ENE 0.9 mph 3.5 mph 86 % 0.00 in
04:49 63.2 °F 58.9 °F 29.90 in ENE 0.3 mph 2.3 mph 86 % 0.00 in
04:54 63.3 °F 59.4 °F 29.90 in Calm     87 % 0.00 in
04:59 63.2 °F 59.3 °F 29.90 in Calm     87 % 0.00 in
05:04 63.2 °F 59.3 °F 29.90 in Calm     87 % 0.00 in
05:09 63.2 °F 59.3 °F 29.89 in Calm     87 % 0.00 in
05:14 63.2 °F 59.3 °F 29.89 in Calm     87 % 0.00 in
05:19 63.1 °F 59.5 °F 29.90 in Calm     88 % 0.00 in
05:24 63.1 °F 59.2 °F 29.90 in Calm     87 % 0.00 in
05:29 63.1 °F 59.2 °F 29.89 in Calm     87 % 0.00 in
05:34 63.1 °F 59.5 °F 29.89 in Calm     88 % 0.00 in
05:39 63.1 °F 59.2 °F 29.89 in Calm     87 % 0.00 in
05:44 63.0 °F 59.1 °F 29.89 in Calm     87 % 0.00 in
05:49 63.0 °F 59.1 °F 29.89 in Calm     87 % 0.00 in
05:54 62.7 °F 56.1 °F 29.89 in East 1.6 mph 2.3 mph 79 % 0.00 in
05:59 62.7 °F 54.7 °F 29.88 in ESE 1.5 mph 2.3 mph 75 % 0.00 in
06:04 62.7 °F 54.7 °F 29.89 in ESE 1.2 mph 2.3 mph 75 % 0.00 in
06:09 62.7 °F 54.7 °F 29.88 in ENE 1.6 mph 2.3 mph 75 % 0.00 in
06:14 62.8 °F 55.1 °F 29.88 in NNE 1.3 mph 2.3 mph 76 % 0.00 in
06:19 62.9 °F 55.9 °F 29.88 in NNE 0.9 mph 2.3 mph 78 % 0.00 in
06:24 62.9 °F 55.9 °F 29.88 in Calm     78 % 0.00 in
06:29 62.9 °F 55.9 °F 29.89 in Calm     78 % 0.00 in
06:34 62.9 °F 56.3 °F 29.88 in Calm     79 % 0.00 in
06:39 63.0 °F 56.7 °F 29.89 in ESE 0.3 mph 2.3 mph 80 % 0.00 in
06:44 63.0 °F 56.7 °F 29.88 in Calm   2.3 mph 80 % 0.00 in
06:49 63.0 °F 57.1 °F 29.88 in Calm     81 % 0.00 in
06:54 63.0 °F 57.1 °F 29.89 in Calm     81 % 0.00 in
06:59 62.9 °F 57.3 °F 29.89 in Calm     82 % 0.00 in
07:04 62.9 °F 57.3 °F 29.89 in ENE 1.6 mph 5.0 mph 82 % 0.00 in
07:09 62.9 °F 57.7 °F 29.89 in Calm   2.3 mph 83 % 0.00 in
07:14 62.8 °F 57.6 °F 29.88 in ENE 0.2 mph 3.5 mph 83 % 0.00 in
07:19 62.6 °F 57.0 °F 29.88 in ENE 0.7 mph 3.5 mph 82 % 0.00 in
07:24 62.6 °F 57.4 °F 29.88 in ENE 1.6 mph 3.5 mph 83 % 0.00 in
07:29 62.4 °F 57.2 °F 29.88 in ENE 1.6 mph 3.5 mph 83 % 0.00 in
07:34 62.3 °F 57.1 °F 29.89 in ENE 0.2 mph 2.3 mph 83 % 0.00 in
07:39 62.3 °F 57.1 °F 29.88 in ENE 0.8 mph 3.5 mph 83 % 0.00 in
07:44 62.3 °F 57.1 °F 29.88 in ENE 1.0 mph 2.3 mph 83 % 0.00 in
07:49 62.3 °F 57.4 °F 29.88 in Calm     84 % 0.00 in
07:54 62.4 °F 57.5 °F 29.89 in Calm   3.5 mph 84 % 0.00 in
07:59 62.4 °F 57.5 °F 29.89 in Calm     84 % 0.00 in
08:04 62.4 °F 57.5 °F 29.89 in ENE 0.1 mph 3.0 mph 84 % 0.00 in
08:09 62.5 °F 57.9 °F 29.89 in Calm   1.2 mph 85 % 0.00 in
08:14 62.5 °F 57.9 °F 29.88 in ENE 1.7 mph 5.8 mph 85 % 0.00 in
08:19 62.5 °F 57.9 °F 29.88 in Calm   2.3 mph 85 % 0.00 in
08:24 62.6 °F 58.0 °F 29.88 in ENE 1.2 mph 3.5 mph 85 % 0.00 in
08:29 62.6 °F 58.4 °F 29.87 in ENE 1.3 mph 4.0 mph 86 % 0.00 in
08:34 62.6 °F 58.4 °F 29.87 in ENE 1.0 mph 4.6 mph 86 % 0.00 in
08:39 62.7 °F 58.8 °F 29.87 in ENE 0.9 mph 2.3 mph 87 % 0.00 in
08:44 62.9 °F 59.0 °F 29.87 in Calm   2.3 mph 87 % 0.00 in
08:49 63.0 °F 59.1 °F 29.88 in ENE 0.8 mph 2.3 mph 87 % 0.00 in
08:54 63.0 °F 59.4 °F 29.88 in East 0.5 mph 3.5 mph 88 % 0.00 in
08:59 62.9 °F 59.3 °F 29.88 in Calm   3.5 mph 88 % 0.00 in
09:04 62.9 °F 59.3 °F 29.87 in ENE 0.2 mph 3.0 mph 88 % 0.00 in
09:09 62.6 °F 59.0 °F 29.87 in East 3.5 mph 5.8 mph 88 % 0.00 in
09:14 62.4 °F 58.8 °F 29.87 in ENE 3.0 mph 4.0 mph 88 % 0.00 in
09:19 62.3 °F 59.0 °F 29.87 in ENE 1.8 mph 3.5 mph 89 % 0.00 in
09:24 62.3 °F 59.0 °F 29.87 in ENE 2.7 mph 4.0 mph 89 % 0.00 in
09:29 62.1 °F 58.8 °F 29.87 in ENE 4.1 mph 5.0 mph 89 % 0.00 in
09:34 62.0 °F 59.0 °F 29.87 in ENE 2.8 mph 4.6 mph 90 % 0.00 in
09:39 62.0 °F 59.0 °F 29.87 in ENE 2.6 mph 3.5 mph 90 % 0.00 in
09:44 62.0 °F 59.3 °F 29.87 in East 2.4 mph 5.0 mph 91 % 0.00 in
09:49 61.8 °F 59.1 °F 29.86 in ENE 2.2 mph 4.6 mph 91 % 0.00 in
09:54 61.7 °F 59.0 °F 29.86 in ENE 2.6 mph 3.5 mph 91 % 0.00 in
09:59 61.6 °F 59.3 °F 29.86 in ENE 1.6 mph 3.5 mph 92 % 0.00 in
10:04 61.4 °F 59.1 °F 29.86 in ENE 2.4 mph 3.5 mph 92 % 0.00 in
10:09 61.4 °F 59.4 °F 29.86 in ENE 0.2 mph 3.5 mph 93 % 0.00 in
10:14 61.3 °F 59.3 °F 29.86 in ENE 2.1 mph 3.5 mph 93 % 0.00 in
10:19 61.3 °F 59.3 °F 29.86 in ENE 2.8 mph 3.5 mph 93 % 0.00 in
10:24 61.1 °F 59.1 °F 29.86 in East 4.7 mph 8.1 mph 93 % 0.00 in
10:29 60.9 °F 58.9 °F 29.85 in East 5.4 mph 8.0 mph 93 % 0.00 in
10:34 60.8 °F 58.8 °F 29.85 in ENE 5.7 mph 12.7 mph 93 % 0.00 in
10:39 60.8 °F 58.8 °F 29.86 in ENE 1.9 mph 3.5 mph 93 % 0.00 in
10:44 60.8 °F 58.8 °F 29.86 in ENE 4.5 mph 5.8 mph 93 % 0.00 in
10:49 60.7 °F 58.7 °F 29.86 in ENE 2.8 mph 3.5 mph 93 % 0.00 in
10:54 60.7 °F 59.0 °F 29.86 in NE 2.4 mph 9.2 mph 94 % 0.00 in
10:59 60.7 °F 59.0 °F 29.86 in ENE 1.9 mph 9.2 mph 94 % 0.00 in
11:04 60.8 °F 59.1 °F 29.86 in ENE 3.2 mph 5.8 mph 94 % 0.00 in
11:09 60.8 °F 59.1 °F 29.87 in ENE 1.2 mph 2.3 mph 94 % 0.00 in
11:14 60.8 °F 59.1 °F 29.87 in ENE 0.6 mph 4.0 mph 94 % 0.00 in
11:19 60.8 °F 59.1 °F 29.86 in ENE 2.3 mph 10.4 mph 94 % 0.00 in
11:24 60.9 °F 59.2 °F 29.86 in ENE 2.0 mph 3.5 mph 94 % 0.00 in
11:29 61.0 °F 59.3 °F 29.86 in ENE 1.6 mph 4.6 mph 94 % 0.00 in
11:34 61.1 °F 59.4 °F 29.86 in ENE 2.0 mph 4.0 mph 94 % 0.00 in
11:39 61.1 °F 59.4 °F 29.86 in ENE 3.0 mph 6.9 mph 94 % 0.00 in
11:44 61.2 °F 59.5 °F 29.86 in ENE 3.2 mph 3.5 mph 94 % 0.00 in
11:49 61.3 °F 59.6 °F 29.86 in ENE 3.7 mph 8.1 mph 94 % 0.00 in
11:54 61.3 °F 59.6 °F 29.86 in NE 4.9 mph 7.0 mph 94 % 0.00 in
11:59 61.5 °F 60.1 °F 29.86 in ENE 4.9 mph 8.1 mph 95 % 0.00 in
12:04 61.6 °F 59.9 °F 29.86 in ENE 2.6 mph 3.5 mph 94 % 0.00 in
12:09 61.6 °F 59.9 °F 29.85 in ENE 1.4 mph 3.5 mph 94 % 0.00 in
12:14 61.7 °F 60.0 °F 29.85 in ENE 1.5 mph 6.9 mph 94 % 0.00 in
12:19 61.8 °F 60.1 °F 29.85 in ENE 2.2 mph 4.0 mph 94 % 0.00 in
12:24 61.9 °F 60.2 °F 29.85 in ENE 3.1 mph 3.5 mph 94 % 0.00 in
12:29 62.1 °F 60.4 °F 29.84 in ENE 1.2 mph 3.5 mph 94 % 0.00 in
12:34 62.2 °F 60.5 °F 29.84 in ENE 2.0 mph 6.9 mph 94 % 0.00 in
12:39 62.2 °F 60.5 °F 29.84 in ENE 3.3 mph 5.0 mph 94 % 0.00 in
12:44 62.2 °F 60.5 °F 29.84 in ENE 0.5 mph 3.0 mph 94 % 0.00 in
12:49 62.3 °F 60.6 °F 29.84 in ENE 1.7 mph 3.5 mph 94 % 0.00 in
12:54 62.2 °F 60.5 °F 29.84 in ENE 2.4 mph 3.5 mph 94 % 0.00 in
12:59 62.2 °F 60.5 °F 29.84 in ENE 2.7 mph 6.9 mph 94 % 0.00 in
13:04 62.2 °F 60.5 °F 29.84 in ENE 2.9 mph 4.6 mph 94 % 0.00 in
13:09 62.4 °F 60.7 °F 29.84 in Calm   1.2 mph 94 % 0.00 in
13:14 62.5 °F 60.7 °F 29.84 in Calm   3.5 mph 94 % 0.00 in
13:19 62.7 °F 60.9 °F 29.83 in ENE 0.3 mph 1.2 mph 94 % 0.00 in
13:24 62.8 °F 61.0 °F 29.83 in ENE 1.0 mph 3.0 mph 94 % 0.00 in
13:29 62.9 °F 61.1 °F 29.83 in Calm   1.0 mph 94 % 0.00 in
13:34 62.9 °F 61.1 °F 29.83 in ENE 0.6 mph 3.5 mph 94 % 0.00 in
13:39 62.9 °F 60.8 °F 29.83 in ENE 3.4 mph 3.5 mph 93 % 0.00 in
13:44 62.9 °F 60.8 °F 29.83 in ENE 2.5 mph 6.9 mph 93 % 0.00 in
13:49 62.9 °F 60.8 °F 29.82 in ENE 1.2 mph 3.5 mph 93 % 0.00 in
13:54 62.9 °F 60.8 °F 29.82 in NE 1.6 mph 3.5 mph 93 % 0.00 in
13:59 62.9 °F 60.8 °F 29.83 in NE 0.3 mph 3.0 mph 93 % 0.00 in
14:04 62.9 °F 60.8 °F 29.83 in ENE 0.5 mph 6.9 mph 93 % 0.00 in
14:09 62.9 °F 60.8 °F 29.83 in ENE 0.5 mph 3.0 mph 93 % 0.00 in
14:14 62.9 °F 60.8 °F 29.83 in ENE 0.6 mph 1.2 mph 93 % 0.00 in
14:19 63.0 °F 61.2 °F 29.83 in ENE 0.7 mph 3.5 mph 94 % 0.00 in
14:24 63.1 °F 61.0 °F 29.82 in ENE 0.4 mph 4.6 mph 93 % 0.00 in
14:29 63.0 °F 60.9 °F 29.82 in ENE 0.7 mph 5.8 mph 93 % 0.00 in
14:34 63.1 °F 61.0 °F 29.82 in NE 0.8 mph 3.5 mph 93 % 0.00 in
14:39 63.0 °F 60.9 °F 29.82 in NE 2.2 mph 10.4 mph 93 % 0.00 in
14:44 62.9 °F 60.8 °F 29.82 in ENE 0.4 mph 4.6 mph 93 % 0.00 in
14:49 62.9 °F 60.8 °F 29.83 in NE 0.1 mph 3.5 mph 93 % 0.00 in
14:54 62.9 °F 61.1 °F 29.83 in ENE 1.3 mph 4.6 mph 94 % 0.00 in
14:59 62.9 °F 61.1 °F 29.83 in Calm     94 % 0.00 in
15:04 63.0 °F 61.2 °F 29.83 in Calm   1.2 mph 94 % 0.00 in
15:09 63.0 °F 61.2 °F 29.82 in Calm     94 % 0.00 in
15:14 63.0 °F 61.2 °F 29.82 in NE 0.9 mph 2.3 mph 94 % 0.00 in
15:19 63.1 °F 61.3 °F 29.82 in NE 0.2 mph 3.5 mph 94 % 0.00 in
15:24 63.2 °F 61.7 °F 29.82 in NE 0.8 mph 2.3 mph 95 % 0.00 in
15:29 63.2 °F 61.7 °F 29.82 in NE 0.6 mph 2.3 mph 95 % 0.00 in
15:34 63.3 °F 61.8 °F 29.81 in ENE 0.8 mph 3.5 mph 95 % 0.00 in
15:39 63.3 °F 61.8 °F 29.81 in NE 1.6 mph 4.6 mph 95 % 0.00 in
15:44 63.3 °F 61.8 °F 29.81 in ENE 2.1 mph 4.0 mph 95 % 0.00 in
15:49 63.4 °F 61.9 °F 29.80 in ENE 0.1 mph 2.3 mph 95 % 0.00 in
15:54 63.5 °F 62.0 °F 29.80 in Calm     95 % 0.00 in
Crab Meadow Weather
Compliments of Weather Underground - 2.25 mb

Script developed by  Jim McMurry - jmcmurry@mwt.net Adapted for the template by  Wim van der Kuil - Leuven-Template.eu

Weather Terms: Tornado - A violently rotating column of air, from a thunderstorm, in contact with the ground.